createdAt,value
2023-03-27T00:01:01.184Z,87.994385
2023-03-27T00:02:09.904Z,87.994385
2023-03-27T00:03:17.587Z,88.098145
2023-03-27T00:04:27.155Z,88.098145
2023-03-27T00:05:34.812Z,88.098145
2023-03-27T00:06:44.473Z,88.201904
2023-03-27T00:07:53.144Z,88.201904
2023-03-27T00:09:02.804Z,88.201904
2023-03-27T00:10:12.461Z,88.201904
2023-03-27T00:11:20.142Z,88.305664
2023-03-27T00:12:27.815Z,88.305664
2023-03-27T00:13:42.611Z,88.409424
2023-03-27T00:14:48.133Z,88.409424
2023-03-27T00:15:57.781Z,88.409424
2023-03-27T00:17:05.513Z,88.409424
2023-03-27T00:18:14.137Z,88.305664
2023-03-27T00:19:21.770Z,88.409424
2023-03-27T00:20:31.423Z,88.409424
2023-03-27T00:21:40.133Z,88.513184
2023-03-27T00:22:48.794Z,88.61084
2023-03-27T00:23:57.446Z,88.513184
2023-03-27T00:25:07.089Z,88.61084
2023-03-27T00:26:16.797Z,88.61084
2023-03-27T00:27:25.514Z,88.61084
2023-03-27T00:28:33.162Z,88.61084
2023-03-27T00:29:42.832Z,88.757324
2023-03-27T00:30:52.542Z,88.861084
2023-03-27T00:32:01.212Z,88.964844
2023-03-27T00:33:09.867Z,89.068604
2023-03-27T00:34:19.601Z,89.276123
2023-03-27T00:35:29.368Z,89.379883
2023-03-27T00:36:37.954Z,89.379883
2023-03-27T00:37:45.626Z,89.276123
2023-03-27T00:38:55.293Z,89.379883
2023-03-27T00:40:03.963Z,89.276123
2023-03-27T00:41:12.811Z,89.172363
2023-03-27T00:42:22.309Z,89.379883
2023-03-27T00:43:31.953Z,89.379883
2023-03-27T00:44:41.621Z,89.379883
2023-03-27T00:45:49.282Z,89.379883
2023-03-27T00:46:58.960Z,89.379883
2023-03-27T00:48:08.759Z,89.276123
2023-03-27T00:49:17.378Z,89.379883
2023-03-27T00:50:27.078Z,89.276123
2023-03-27T00:51:36.741Z,89.172363
2023-03-27T00:52:46.424Z,89.172363
2023-03-27T00:53:56.090Z,89.025879
2023-03-27T00:55:04.730Z,88.922119
2023-03-27T00:56:12.381Z,88.818359
2023-03-27T00:57:22.094Z,88.818359
2023-03-27T00:58:31.733Z,88.922119
2023-03-27T00:59:40.381Z,88.818359
2023-03-27T01:00:49.027Z,88.818359
2023-03-27T01:01:57.738Z,88.818359
2023-03-27T01:03:07.450Z,88.922119
2023-03-27T01:04:16.022Z,88.818359
2023-03-27T01:05:24.666Z,88.922119
2023-03-27T01:06:34.366Z,88.922119
2023-03-27T01:07:59.931Z,88.818359
2023-03-27T01:08:53.656Z,88.7146
2023-03-27T01:10:03.314Z,88.7146
2023-03-27T01:11:11.985Z,88.61084
2023-03-27T01:12:21.674Z,88.61084
2023-03-27T01:13:31.330Z,88.61084
2023-03-27T01:14:41.979Z,88.7146
2023-03-27T01:15:51.671Z,88.7146
2023-03-27T01:17:00.322Z,88.7146
2023-03-27T01:18:09.057Z,89.025879
2023-03-27T01:19:18.657Z,89.440918
2023-03-27T01:20:28.330Z,90.057373
2023-03-27T01:21:38.009Z,90.472412
2023-03-27T01:22:46.644Z,90.991211
2023-03-27T01:23:58.776Z,91.503906
2023-03-27T01:25:05.948Z,91.815186
2023-03-27T01:26:15.596Z,92.480469
2023-03-27T01:27:26.282Z,92.785645
2023-03-27T01:28:35.941Z,93.615723
2023-03-27T01:29:44.656Z,93.719482
2023-03-27T01:30:54.483Z,94.232178
2023-03-27T01:32:02.975Z,94.750977
2023-03-27T01:33:12.671Z,95.10498
2023-03-27T01:34:22.329Z,95.727539
2023-03-27T01:35:31.023Z,95.935059
2023-03-27T01:36:40.688Z,96.032715
2023-03-27T01:37:50.378Z,96.343994
2023-03-27T01:39:00.018Z,96.136475
2023-03-27T01:40:09.672Z,96.862793
2023-03-27T01:41:17.319Z,96.966553
2023-03-27T01:42:26.985Z,97.381592
2023-03-27T01:43:36.649Z,97.485352
2023-03-27T01:44:45.627Z,97.790527
2023-03-27T01:45:53.985Z,97.686768
2023-03-27T01:47:02.644Z,97.216797
2023-03-27T01:48:12.316Z,97.485352
2023-03-27T01:49:21.969Z,97.998047
2023-03-27T01:50:29.627Z,98.101807
2023-03-27T01:51:39.283Z,97.735596
2023-03-27T01:52:48.970Z,97.943115
2023-03-27T01:53:58.647Z,98.150635
2023-03-27T01:55:07.312Z,98.046875
2023-03-27T01:56:15.970Z,98.254395
2023-03-27T01:57:24.633Z,98.352051
2023-03-27T01:58:34.316Z,98.352051
2023-03-27T01:59:42.963Z,98.254395
2023-03-27T02:00:53.550Z,98.455811
2023-03-27T02:02:02.295Z,98.504639
2023-03-27T02:03:11.971Z,98.400879
2023-03-27T02:04:20.724Z,98.504639
2023-03-27T02:05:30.392Z,98.504639
2023-03-27T02:06:39.041Z,98.608398
2023-03-27T02:07:48.741Z,98.712158
2023-03-27T02:08:56.433Z,98.815918
2023-03-27T02:10:05.061Z,98.712158
2023-03-27T02:11:14.715Z,98.712158
2023-03-27T02:12:23.388Z,98.608398
2023-03-27T02:13:32.099Z,98.919678
2023-03-27T02:14:40.741Z,99.023438
2023-03-27T02:15:49.412Z,98.919678
2023-03-27T02:16:58.078Z,98.919678
2023-03-27T02:18:07.738Z,98.919678
2023-03-27T02:19:16.408Z,99.127197
2023-03-27T02:20:25.060Z,99.023438
2023-03-27T02:21:33.720Z,99.023438
2023-03-27T02:22:42.427Z,99.078369
2023-03-27T02:23:52.141Z,98.919678
2023-03-27T02:24:59.833Z,98.76709
2023-03-27T02:26:08.512Z,98.76709
2023-03-27T02:27:18.194Z,98.66333
2023-03-27T02:28:26.881Z,98.66333
2023-03-27T02:29:36.564Z,98.55957
2023-03-27T02:30:46.223Z,98.55957
2023-03-27T02:31:55.887Z,98.455811
2023-03-27T02:33:05.591Z,98.352051
2023-03-27T02:34:15.233Z,98.352051
2023-03-27T02:35:23.905Z,98.150635
2023-03-27T02:36:32.525Z,98.254395
2023-03-27T02:37:41.188Z,98.150635
2023-03-27T02:38:50.872Z,98.150635
2023-03-27T02:39:59.527Z,98.254395
2023-03-27T02:41:08.227Z,98.352051
2023-03-27T02:42:16.852Z,98.455811
2023-03-27T02:43:24.562Z,98.455811
2023-03-27T02:44:33.244Z,98.76709
2023-03-27T02:45:43.936Z,98.87085
2023-03-27T02:46:53.550Z,98.76709
2023-03-27T02:48:02.334Z,98.87085
2023-03-27T02:49:11.002Z,98.87085
2023-03-27T02:50:20.673Z,98.974609
2023-03-27T02:51:30.328Z,98.974609
2023-03-27T02:52:39.004Z,98.76709
2023-03-27T02:53:46.638Z,98.87085
2023-03-27T02:54:56.350Z,98.974609
2023-03-27T02:56:05.008Z,99.078369
2023-03-27T02:57:14.828Z,99.182129
2023-03-27T02:58:24.316Z,99.285889
2023-03-27T02:59:32.997Z,99.182129
2023-03-27T03:00:42.754Z,99.127197
2023-03-27T03:01:51.414Z,99.334717
2023-03-27T03:02:59.156Z,99.389648
2023-03-27T03:04:08.745Z,99.493408
2023-03-27T03:05:17.387Z,99.493408
2023-03-27T03:06:26.042Z,99.597168
2023-03-27T03:07:34.736Z,99.639893
2023-03-27T03:08:43.379Z,99.743652
2023-03-27T03:09:53.080Z,99.804688
2023-03-27T03:11:01.730Z,99.908447
2023-03-27T03:12:10.418Z,99.743652
2023-03-27T03:13:20.090Z,99.639893
2023-03-27T03:14:29.753Z,99.847412
2023-03-27T03:15:39.454Z,99.951172
2023-03-27T03:16:49.124Z,99.847412
2023-03-27T03:17:57.752Z,99.993896
2023-03-27T03:19:07.417Z,99.993896
2023-03-27T03:20:15.112Z,99.993896
2023-03-27T03:21:23.778Z,99.951172
2023-03-27T03:22:33.490Z,99.993896
2023-03-27T03:23:42.149Z,99.993896
2023-03-27T03:24:52.786Z,99.993896
2023-03-27T03:26:01.442Z,99.993896
2023-03-27T03:27:11.072Z,99.993896
2023-03-27T03:28:20.739Z,99.993896
2023-03-27T03:29:28.449Z,99.993896
2023-03-27T03:30:38.172Z,99.993896
2023-03-27T03:31:47.739Z,99.993896
2023-03-27T03:32:56.461Z,99.993896
2023-03-27T03:34:06.070Z,99.993896
2023-03-27T03:35:14.753Z,99.993896
2023-03-27T03:36:23.352Z,99.993896
2023-03-27T03:37:31.996Z,99.993896
2023-03-27T03:38:39.653Z,99.993896
2023-03-27T03:39:47.380Z,99.993896
2023-03-27T03:40:57.156Z,99.993896
2023-03-27T03:42:06.679Z,99.993896
2023-03-27T03:43:17.338Z,99.993896
2023-03-27T03:44:26.008Z,99.993896
2023-03-27T03:45:34.691Z,99.993896
2023-03-27T03:46:44.321Z,99.993896
2023-03-27T03:47:53.026Z,99.993896
2023-03-27T03:49:01.649Z,99.993896
2023-03-27T03:50:11.319Z,99.993896
2023-03-27T03:51:20.964Z,99.993896
2023-03-27T03:52:29.618Z,99.993896
2023-03-27T03:53:39.292Z,99.993896
2023-03-27T03:54:48.969Z,99.993896
2023-03-27T03:55:58.643Z,99.993896
2023-03-27T03:57:07.335Z,99.993896
2023-03-27T03:58:15.979Z,99.993896
2023-03-27T03:59:25.668Z,99.993896
2023-03-27T04:00:34.341Z,99.993896
2023-03-27T04:01:44.105Z,99.993896
2023-03-27T04:02:53.745Z,99.993896
2023-03-27T04:04:02.428Z,99.993896
2023-03-27T04:05:12.089Z,99.993896
2023-03-27T04:06:21.744Z,99.993896
2023-03-27T04:07:30.443Z,99.993896
2023-03-27T04:08:40.097Z,99.993896
2023-03-27T04:09:48.825Z,99.993896
2023-03-27T04:10:57.622Z,99.993896
2023-03-27T04:12:05.113Z,99.993896
2023-03-27T04:13:14.802Z,99.993896
2023-03-27T04:14:22.492Z,99.993896
2023-03-27T04:15:32.581Z,99.993896
2023-03-27T04:16:41.279Z,99.993896
2023-03-27T04:17:51.006Z,99.993896
2023-03-27T04:18:59.577Z,99.993896
2023-03-27T04:20:09.312Z,99.993896
2023-03-27T04:21:19.016Z,99.993896
2023-03-27T04:22:26.684Z,99.993896
2023-03-27T04:23:35.354Z,99.993896
2023-03-27T04:24:45.002Z,99.993896
2023-03-27T04:25:54.708Z,99.993896
2023-03-27T04:27:03.395Z,99.993896
2023-03-27T04:28:12.058Z,99.993896
2023-03-27T04:29:20.726Z,99.993896
2023-03-27T04:30:30.435Z,99.993896
2023-03-27T04:31:39.120Z,99.993896
2023-03-27T04:32:48.787Z,99.993896
2023-03-27T04:33:58.478Z,99.993896
2023-03-27T04:35:07.109Z,99.993896
2023-03-27T04:36:15.843Z,99.993896
2023-03-27T04:37:24.402Z,99.993896
2023-03-27T04:38:33.059Z,99.993896
2023-03-27T04:39:42.725Z,99.993896
2023-03-27T04:40:50.425Z,99.993896
2023-03-27T04:42:00.089Z,99.993896
2023-03-27T04:43:09.751Z,99.993896
2023-03-27T04:44:19.397Z,99.993896
2023-03-27T04:45:28.077Z,99.993896
2023-03-27T04:46:36.789Z,99.993896
2023-03-27T04:47:45.431Z,99.993896
2023-03-27T04:48:55.066Z,99.993896
2023-03-27T04:50:03.756Z,99.993896
2023-03-27T04:51:13.439Z,99.993896
2023-03-27T04:52:23.088Z,99.993896
2023-03-27T04:53:31.727Z,99.993896
2023-03-27T04:54:41.425Z,99.993896
2023-03-27T04:55:50.153Z,99.993896
2023-03-27T04:56:58.835Z,99.993896
2023-03-27T04:58:08.446Z,99.993896
2023-03-27T04:59:16.099Z,99.993896
2023-03-27T05:00:23.763Z,99.993896
2023-03-27T05:01:33.438Z,99.993896
2023-03-27T05:02:42.096Z,99.993896
2023-03-27T05:03:51.832Z,99.993896
2023-03-27T05:05:00.378Z,99.993896
2023-03-27T05:06:09.054Z,99.993896
2023-03-27T05:07:18.689Z,99.993896
2023-03-27T05:08:26.348Z,99.993896
2023-03-27T05:09:34.011Z,99.993896
2023-03-27T05:10:43.721Z,99.993896
2023-03-27T05:11:53.419Z,99.993896
2023-03-27T05:13:03.076Z,99.993896
2023-03-27T05:14:12.738Z,99.993896
2023-03-27T05:15:21.384Z,99.993896
2023-03-27T05:16:31.084Z,99.993896
2023-03-27T05:17:38.761Z,99.993896
2023-03-27T05:18:46.397Z,99.993896
2023-03-27T05:19:56.051Z,99.993896
2023-03-27T05:21:05.748Z,99.993896
2023-03-27T05:22:15.453Z,99.993896
2023-03-27T05:23:25.103Z,99.993896
2023-03-27T05:24:33.777Z,99.993896
2023-03-27T05:25:43.489Z,99.993896
2023-03-27T05:26:53.144Z,99.993896
2023-03-27T05:28:00.959Z,99.993896
2023-03-27T05:29:10.455Z,99.993896
2023-03-27T05:30:19.127Z,99.993896
2023-03-27T05:31:26.829Z,99.993896
2023-03-27T05:32:35.525Z,99.993896
2023-03-27T05:33:44.148Z,99.993896
2023-03-27T05:34:53.818Z,99.993896
2023-03-27T05:36:01.520Z,99.993896
2023-03-27T05:37:10.154Z,99.993896
2023-03-27T05:38:19.828Z,99.993896
2023-03-27T05:39:28.536Z,99.993896
2023-03-27T05:40:38.226Z,99.993896
2023-03-27T05:41:47.954Z,99.993896
2023-03-27T05:42:56.608Z,99.993896
2023-03-27T05:44:06.281Z,99.993896
2023-03-27T05:45:13.939Z,99.993896
2023-03-27T05:46:23.069Z,99.993896
2023-03-27T05:47:32.708Z,99.993896
2023-03-27T05:48:42.370Z,99.993896
2023-03-27T05:49:52.018Z,99.993896
2023-03-27T05:51:00.680Z,99.993896
2023-03-27T05:52:09.377Z,99.993896
2023-03-27T05:53:19.034Z,99.993896
2023-03-27T05:54:28.825Z,99.993896
2023-03-27T05:55:37.386Z,99.993896
2023-03-27T05:56:47.089Z,99.993896
2023-03-27T05:57:55.777Z,99.993896
2023-03-27T05:59:05.456Z,99.993896
2023-03-27T06:00:14.128Z,99.993896
2023-03-27T06:01:23.805Z,99.993896
2023-03-27T06:02:33.527Z,99.993896
2023-03-27T06:03:41.312Z,99.993896
2023-03-27T06:04:49.874Z,99.993896
2023-03-27T06:05:59.559Z,99.993896
2023-03-27T06:07:09.274Z,99.993896
2023-03-27T06:08:18.927Z,99.993896
2023-03-27T06:09:28.600Z,99.993896
2023-03-27T06:10:38.283Z,99.993896
2023-03-27T06:11:47.969Z,99.993896
2023-03-27T06:12:57.640Z,99.993896
2023-03-27T06:14:07.299Z,99.993896
2023-03-27T06:15:16.970Z,99.993896
2023-03-27T06:16:26.742Z,99.993896
2023-03-27T06:17:35.491Z,99.993896
2023-03-27T06:18:45.127Z,99.993896
2023-03-27T06:19:53.874Z,99.993896
2023-03-27T06:21:02.534Z,99.993896
2023-03-27T06:22:12.207Z,99.993896
2023-03-27T06:23:20.869Z,99.993896
2023-03-27T06:24:29.526Z,99.993896
2023-03-27T06:25:38.204Z,99.993896
2023-03-27T06:26:46.910Z,99.993896
2023-03-27T06:27:56.567Z,99.993896
2023-03-27T06:29:07.814Z,99.993896
2023-03-27T06:30:12.861Z,99.993896
2023-03-27T06:31:22.617Z,99.993896
2023-03-27T06:32:32.313Z,99.993896
2023-03-27T06:33:41.926Z,99.993896
2023-03-27T06:34:50.580Z,99.993896
2023-03-27T06:35:59.616Z,99.993896
2023-03-27T06:37:08.925Z,99.993896
2023-03-27T06:38:17.587Z,99.993896
2023-03-27T06:39:25.246Z,99.993896
2023-03-27T06:40:34.894Z,99.993896
2023-03-27T06:41:43.581Z,99.993896
2023-03-27T06:42:53.480Z,99.993896
2023-03-27T06:44:03.155Z,99.993896
2023-03-27T06:45:11.854Z,99.993896
2023-03-27T06:46:22.912Z,99.993896
2023-03-27T06:47:33.164Z,99.993896
2023-03-27T06:48:40.895Z,99.993896
2023-03-27T06:49:50.650Z,99.993896
2023-03-27T06:50:59.557Z,99.993896
2023-03-27T06:52:08.035Z,99.993896
2023-03-27T06:53:26.347Z,99.993896
2023-03-27T06:54:27.454Z,99.993896
2023-03-27T06:55:37.164Z,99.993896
2023-03-27T06:56:45.894Z,99.993896
2023-03-27T06:57:55.520Z,99.993896
2023-03-27T06:59:05.228Z,99.993896
2023-03-27T07:00:13.857Z,99.993896
2023-03-27T07:01:23.520Z,99.993896
2023-03-27T07:02:32.235Z,99.993896
2023-03-27T07:03:40.882Z,99.993896
2023-03-27T07:04:58.014Z,99.993896
2023-03-27T07:06:01.399Z,99.993896
2023-03-27T07:07:09.865Z,99.993896
2023-03-27T07:08:23.082Z,99.993896
2023-03-27T07:09:29.202Z,99.993896
2023-03-27T07:10:37.865Z,99.993896
2023-03-27T07:11:46.527Z,99.993896
2023-03-27T07:12:56.256Z,99.993896
2023-03-27T07:14:06.309Z,99.993896
2023-03-27T07:15:14.613Z,99.993896
2023-03-27T07:16:24.311Z,99.993896
2023-03-27T07:17:45.805Z,99.993896
2023-03-27T07:18:43.576Z,99.993896
2023-03-27T07:19:53.227Z,99.993896
2023-03-27T07:21:01.888Z,99.993896
2023-03-27T07:22:10.588Z,99.993896
2023-03-27T07:23:20.192Z,99.993896
2023-03-27T07:24:27.847Z,99.993896
2023-03-27T07:25:35.551Z,99.993896
2023-03-27T07:26:45.288Z,99.993896
2023-03-27T07:27:54.970Z,99.993896
2023-03-27T07:29:03.644Z,99.993896
2023-03-27T07:30:12.332Z,99.993896
2023-03-27T07:31:32.983Z,99.993896
2023-03-27T07:32:36.927Z,99.993896
2023-03-27T07:33:42.363Z,99.993896
2023-03-27T07:34:50.971Z,99.993896
2023-03-27T07:36:00.863Z,99.993896
2023-03-27T07:37:09.344Z,99.993896
2023-03-27T07:38:18.025Z,99.993896
2023-03-27T07:39:26.713Z,99.993896
2023-03-27T07:40:39.737Z,99.993896
2023-03-27T07:41:46.890Z,99.993896
2023-03-27T07:42:55.584Z,99.993896
2023-03-27T07:44:04.261Z,99.993896
2023-03-27T07:45:13.910Z,99.993896
2023-03-27T07:46:22.624Z,99.993896
2023-03-27T07:47:32.380Z,99.993896
2023-03-27T07:48:41.083Z,99.993896
2023-03-27T07:49:49.766Z,99.993896
2023-03-27T07:51:03.937Z,99.993896
2023-03-27T07:52:10.062Z,99.993896
2023-03-27T07:53:32.526Z,99.993896
2023-03-27T07:54:31.383Z,99.993896
2023-03-27T07:55:40.031Z,99.993896
2023-03-27T07:56:47.730Z,99.993896
2023-03-27T07:58:01.208Z,99.993896
2023-03-27T07:59:05.022Z,99.993896
2023-03-27T08:00:14.817Z,99.993896
2023-03-27T08:01:24.479Z,99.993896
2023-03-27T08:02:32.212Z,99.993896
2023-03-27T08:03:42.066Z,99.993896
2023-03-27T08:04:51.678Z,99.993896
2023-03-27T08:06:01.328Z,99.993896
2023-03-27T08:07:11.027Z,99.993896
2023-03-27T08:08:20.709Z,99.993896
2023-03-27T08:09:30.362Z,99.993896
2023-03-27T08:10:39.023Z,99.993896
2023-03-27T08:11:48.674Z,99.993896
2023-03-27T08:12:58.340Z,99.993896
2023-03-27T08:14:08.091Z,99.993896
2023-03-27T08:15:15.769Z,99.993896
2023-03-27T08:16:25.452Z,99.993896
2023-03-27T08:17:34.144Z,99.993896
2023-03-27T08:18:42.788Z,99.993896
2023-03-27T08:19:52.505Z,99.993896
2023-03-27T08:21:01.157Z,99.993896
2023-03-27T08:22:09.813Z,99.993896
2023-03-27T08:23:19.573Z,99.993896
2023-03-27T08:24:29.253Z,99.993896
2023-03-27T08:25:38.973Z,99.993896
2023-03-27T08:26:47.719Z,99.993896
2023-03-27T08:27:55.456Z,99.993896
2023-03-27T08:29:05.141Z,99.993896
2023-03-27T08:30:15.555Z,99.993896
2023-03-27T08:31:22.590Z,99.993896
2023-03-27T08:32:31.241Z,99.993896
2023-03-27T08:33:40.921Z,99.993896
2023-03-27T08:34:49.641Z,99.993896
2023-03-27T08:35:56.451Z,99.993896
2023-03-27T08:37:05.100Z,99.993896
2023-03-27T08:38:25.960Z,99.993896
2023-03-27T08:39:24.504Z,99.993896
2023-03-27T08:40:33.189Z,99.993896
2023-03-27T08:41:41.874Z,99.993896
2023-03-27T08:42:50.595Z,99.993896
2023-03-27T08:44:00.555Z,99.993896
2023-03-27T08:45:09.297Z,99.993896
2023-03-27T08:46:17.002Z,99.993896
2023-03-27T08:47:26.667Z,99.993896
2023-03-27T08:48:35.302Z,99.993896
2023-03-27T08:49:44.981Z,99.993896
2023-03-27T08:50:53.639Z,99.993896
2023-03-27T08:52:02.338Z,99.993896
2023-03-27T08:53:11.977Z,99.993896
2023-03-27T08:54:19.673Z,99.993896
2023-03-27T08:55:27.325Z,99.993896
2023-03-27T08:56:37.011Z,99.993896
2023-03-27T08:57:45.854Z,99.993896
2023-03-27T08:58:54.506Z,99.993896
2023-03-27T09:00:04.203Z,99.993896
2023-03-27T09:01:13.866Z,99.993896
2023-03-27T09:02:23.556Z,99.993896
2023-03-27T09:03:32.288Z,99.993896
2023-03-27T09:04:41.890Z,99.993896
2023-03-27T09:05:51.526Z,99.993896
2023-03-27T09:07:01.213Z,99.993896
2023-03-27T09:08:09.871Z,99.993896
2023-03-27T09:09:19.523Z,99.993896
2023-03-27T09:10:27.338Z,99.993896
2023-03-27T09:11:37.013Z,99.993896
2023-03-27T09:12:45.656Z,99.993896
2023-03-27T09:13:54.374Z,99.993896
2023-03-27T09:15:04.094Z,99.993896
2023-03-27T09:16:12.791Z,99.993896
2023-03-27T09:17:21.402Z,99.993896
2023-03-27T09:18:30.084Z,99.993896
2023-03-27T09:19:38.807Z,99.993896
2023-03-27T09:20:48.466Z,99.993896
2023-03-27T09:21:56.124Z,99.993896
2023-03-27T09:23:04.859Z,99.993896
2023-03-27T09:24:14.539Z,99.993896
2023-03-27T09:25:24.214Z,99.993896
2023-03-27T09:26:31.877Z,99.993896
2023-03-27T09:27:41.528Z,99.993896
2023-03-27T09:28:51.181Z,99.993896
2023-03-27T09:30:05.243Z,99.993896
2023-03-27T09:31:11.584Z,99.993896
2023-03-27T09:32:20.296Z,99.993896
2023-03-27T09:33:29.981Z,99.993896
2023-03-27T09:34:38.680Z,99.993896
2023-03-27T09:35:48.380Z,99.993896
2023-03-27T09:36:57.017Z,99.993896
2023-03-27T09:38:07.701Z,99.993896
2023-03-27T09:39:17.425Z,99.993896
2023-03-27T09:40:26.036Z,99.993896
2023-03-27T09:41:33.698Z,99.993896
2023-03-27T09:42:43.407Z,99.993896
2023-03-27T09:43:53.156Z,99.993896
2023-03-27T09:45:04.460Z,99.993896
2023-03-27T09:46:13.162Z,99.993896
2023-03-27T09:47:22.773Z,99.993896
2023-03-27T09:48:32.430Z,99.993896
2023-03-27T09:49:40.124Z,99.993896
2023-03-27T09:50:48.820Z,99.993896
2023-03-27T09:51:58.468Z,99.993896
2023-03-27T09:53:08.227Z,99.993896
2023-03-27T09:54:17.883Z,99.993896
2023-03-27T09:55:26.578Z,99.993896
2023-03-27T09:56:35.253Z,99.993896
2023-03-27T09:57:44.905Z,99.993896
2023-03-27T09:58:54.561Z,99.993896
2023-03-27T10:00:02.579Z,99.993896
2023-03-27T10:01:11.245Z,99.993896
2023-03-27T10:02:19.893Z,99.993896
2023-03-27T10:03:29.581Z,99.993896
2023-03-27T10:04:39.241Z,99.993896
2023-03-27T10:05:47.913Z,99.993896
2023-03-27T10:06:57.563Z,99.993896
2023-03-27T10:08:05.241Z,99.993896
2023-03-27T10:09:13.888Z,99.993896
2023-03-27T10:10:23.578Z,99.993896
2023-03-27T10:11:32.321Z,99.993896
2023-03-27T10:12:42.035Z,99.993896
2023-03-27T10:13:51.698Z,99.993896
2023-03-27T10:15:01.415Z,99.993896
2023-03-27T10:16:09.083Z,99.816895
2023-03-27T10:17:18.720Z,99.664307
2023-03-27T10:18:28.418Z,99.353027
2023-03-27T10:19:37.099Z,98.626709
2023-03-27T10:20:45.827Z,98.10791
2023-03-27T10:21:54.484Z,97.692871
2023-03-27T10:23:03.155Z,97.381592
2023-03-27T10:24:12.811Z,97.235107
2023-03-27T10:25:20.491Z,96.923828
2023-03-27T10:26:30.199Z,96.30127
2023-03-27T10:27:38.915Z,96.405029
2023-03-27T10:28:47.494Z,95.782471
2023-03-27T10:29:55.154Z,95.635986
2023-03-27T10:31:04.529Z,95.281982
2023-03-27T10:32:14.251Z,94.866943
2023-03-27T10:33:23.861Z,94.348145
2023-03-27T10:34:33.520Z,93.206787
2023-03-27T10:35:43.224Z,93.933105
2023-03-27T10:36:52.887Z,93.621826
2023-03-27T10:38:01.589Z,93.829346
2023-03-27T10:39:10.302Z,94.07959
2023-03-27T10:40:19.965Z,94.07959
2023-03-27T10:41:29.666Z,94.348145
2023-03-27T10:42:38.374Z,93.518066
2023-03-27T10:43:47.060Z,93.310547
2023-03-27T10:44:56.698Z,93.310547
2023-03-27T10:46:04.476Z,92.694092
2023-03-27T10:47:14.067Z,90.765381
2023-03-27T10:48:22.725Z,90.350342
2023-03-27T10:49:32.502Z,90.557861
2023-03-27T10:50:42.232Z,90.142822
2023-03-27T10:51:49.897Z,89.727783
2023-03-27T10:52:58.581Z,90.039062
2023-03-27T10:54:08.236Z,90.454102
2023-03-27T10:55:16.859Z,90.765381
2023-03-27T10:56:25.551Z,89.001465
2023-03-27T10:57:35.266Z,88.28125
2023-03-27T10:58:44.936Z,88.38501
2023-03-27T10:59:55.681Z,88.793945
2023-03-27T11:01:05.532Z,89.483643
2023-03-27T11:02:15.048Z,88.7146
2023-03-27T11:03:24.759Z,86.853027
2023-03-27T11:04:33.398Z,86.541748
2023-03-27T11:05:43.147Z,87.017822
2023-03-27T11:06:52.870Z,86.291504
2023-03-27T11:08:01.544Z,85.15625
2023-03-27T11:09:11.208Z,84.637451
2023-03-27T11:10:18.868Z,85.15625
2023-03-27T11:11:26.537Z,85.675049
2023-03-27T11:12:36.204Z,85.296631
2023-03-27T11:13:45.871Z,85.296631
2023-03-27T11:14:55.529Z,85.400391
2023-03-27T11:16:04.331Z,85.131836
2023-03-27T11:17:12.950Z,85.443115
2023-03-27T11:18:21.674Z,85.858154
2023-03-27T11:19:30.377Z,85.894775
2023-03-27T11:20:38.029Z,86.413574
2023-03-27T11:21:47.712Z,86.474609
2023-03-27T11:22:56.393Z,86.785889
2023-03-27T11:24:05.044Z,86.682129
2023-03-27T11:25:13.737Z,85.961914
2023-03-27T11:26:22.407Z,84.924316
2023-03-27T11:27:32.074Z,84.472656
2023-03-27T11:28:41.743Z,84.472656
2023-03-27T11:29:49.421Z,84.680176
2023-03-27T11:30:59.355Z,84.429932
2023-03-27T11:32:08.781Z,82.983398
2023-03-27T11:33:17.437Z,83.251953
2023-03-27T11:34:29.170Z,81.872559
2023-03-27T11:35:35.755Z,80.114746
2023-03-27T11:36:45.430Z,79.25415
2023-03-27T11:37:54.240Z,78.594971
2023-03-27T11:39:02.859Z,77.593994
2023-03-27T11:40:12.513Z,78.485107
2023-03-27T11:41:21.230Z,78.00293
2023-03-27T11:42:29.943Z,76.971436
2023-03-27T11:43:38.614Z,75.457764
2023-03-27T11:44:48.271Z,73.022461
2023-03-27T11:45:57.959Z,73.260498
2023-03-27T11:47:05.638Z,73.052979
2023-03-27T11:48:15.404Z,73.156738
2023-03-27T11:49:24.975Z,74.56665
2023-03-27T11:50:33.623Z,73.400879
2023-03-27T11:51:42.308Z,70.959473
2023-03-27T11:52:50.985Z,70.782471
2023-03-27T11:53:59.643Z,71.44165
2023-03-27T11:55:09.303Z,70.758057
2023-03-27T11:56:16.946Z,70.20874
2023-03-27T11:57:25.640Z,69.702148
2023-03-27T11:58:35.336Z,66.96167
2023-03-27T11:59:44.992Z,65.087891
2023-03-27T12:00:53.660Z,64.611816
2023-03-27T12:02:02.374Z,61.712646
2023-03-27T12:03:12.047Z,61.523438
2023-03-27T12:04:20.777Z,61.907959
2023-03-27T12:05:30.371Z,60.223389
2023-03-27T12:06:38.076Z,60.27832
2023-03-27T12:07:48.088Z,59.771729
2023-03-27T12:08:57.436Z,61.474609
2023-03-27T12:10:07.085Z,61.810303
2023-03-27T12:11:16.779Z,61.047363
2023-03-27T12:12:26.468Z,61.71875
2023-03-27T12:13:41.603Z,64.874268
2023-03-27T12:14:46.754Z,70.715332
2023-03-27T12:15:56.438Z,74.291992
2023-03-27T12:17:05.160Z,75.085449
2023-03-27T12:18:14.788Z,76.257324
2023-03-27T12:19:28.863Z,77.496338
2023-03-27T12:20:35.108Z,76.568604
2023-03-27T12:21:44.756Z,76.287842
2023-03-27T12:22:53.442Z,74.707031
2023-03-27T12:24:03.126Z,73.0896
2023-03-27T12:25:11.831Z,72.161865
2023-03-27T12:26:20.475Z,72.302246
2023-03-27T12:27:29.167Z,71.856689
2023-03-27T12:28:39.516Z,70.898438
2023-03-27T12:29:47.515Z,69.458008
2023-03-27T12:30:55.266Z,68.292236
2023-03-27T12:32:03.894Z,67.498779
2023-03-27T12:33:13.525Z,68.87207
2023-03-27T12:34:23.200Z,68.695068
2023-03-27T12:35:31.945Z,69.451904
2023-03-27T12:36:41.542Z,69.549561
2023-03-27T12:37:51.258Z,69.0979
2023-03-27T12:39:00.953Z,69.238281
2023-03-27T12:40:09.615Z,70.196533
2023-03-27T12:41:18.293Z,71.020508
2023-03-27T12:42:28.010Z,71.643066
2023-03-27T12:43:38.717Z,70.330811
2023-03-27T12:44:47.364Z,71.331787
2023-03-27T12:45:56.018Z,70.574951
2023-03-27T12:47:07.156Z,70.819092
2023-03-27T12:48:14.367Z,70.330811
2023-03-27T12:49:23.229Z,69.024658
2023-03-27T12:50:32.755Z,68.060303
2023-03-27T12:51:42.475Z,67.926025
2023-03-27T12:52:51.160Z,67.614746
2023-03-27T12:53:58.874Z,66.790771
2023-03-27T12:55:08.600Z,66.894531
2023-03-27T12:56:17.240Z,66.375732
2023-03-27T12:57:25.962Z,66.448975
2023-03-27T12:58:35.644Z,65.551758
2023-03-27T12:59:45.284Z,65.72876
2023-03-27T13:00:55.105Z,65.209961
2023-03-27T13:02:03.760Z,65.032959
2023-03-27T13:03:12.501Z,65.936279
2023-03-27T13:04:22.114Z,66.137695
2023-03-27T13:05:30.826Z,65.863037
2023-03-27T13:06:40.522Z,66.168213
2023-03-27T13:07:49.360Z,66.925049
2023-03-27T13:08:58.986Z,66.821289
2023-03-27T13:10:08.670Z,67.645264